2001 LINGLING (2001309N10130)


On this page: IBTrACS data - Map and Plots - Positions - Intensities - Original source data

Summary

Start Nov 5
End Nov 12
Basin WP
LMI 115 kt
Sources jtwc_wp
tokyo
cma
hko
In WMO? Yes
Previous storm 2001 NOEL (NA)
Previous in basin 2001 PODUL (WP)
Concurrent storms 2002 ALEX (SI)
2001 MICHELLE (NA)
2001 NOEL (NA)
2001 LINGLING (WP)
2001 MISSING (NI)
2001 MISSING (NI)
Next in basin Missing
Next storm 2001 MISSING (NI)

top of page IBTrACS Data: File Access

top of page HURSAT Data: File Access

Image of storm

top of page Plots:

Map of storm track will not appear if FTP is down
Time series of cyclone Maximum Sustained Wind will not appear if FTP is down
Time series of cyclone Minimum Central Pressure will not appear if FTP is down

top of page Track Data:Position

jtwc_wp tokyo cma hko
Date Lat Lon Lat Lon Lat Lon Lat Lon
2001-11-05 06:00:00 9.8 130.4
2001-11-05 12:00:00 9.9 129.7
2001-11-05 18:00:00 9.9 128.7
2001-11-06 00:00:00 10.0 127.7 10.2 128.0 10.2 128.0
2001-11-06 06:00:00 10.3 126.8 10.4 126.9 10.4 126.9
2001-11-06 12:00:00 10.6 125.9 10.4 126.0 10.4 126.0 10.5 126.3
2001-11-06 18:00:00 10.7 125.0 10.4 125.3 10.4 125.1 10.6 125.2
2001-11-07 00:00:00 10.8 124.2 10.5 124.4 10.8 124.0 10.7 124.2
2001-11-07 06:00:00 10.8 123.6 10.7 123.9 10.8 123.6 10.8 123.8
2001-11-07 12:00:00 11.0 123.1 10.9 123.3 11.0 123.2 10.9 123.4
2001-11-07 18:00:00 11.2 122.7 11.2 122.7 11.3 122.8 11.1 123.0
2001-11-08 00:00:00 11.4 122.2 11.5 122.0 11.5 122.4 11.4 122.4
2001-11-08 06:00:00 11.8 121.5 11.9 121.4 11.7 121.7 11.7 121.7
2001-11-08 12:00:00 12.1 120.8 12.3 120.7 12.1 120.8 12.1 120.8
2001-11-08 18:00:00 12.4 119.8 12.5 119.7 12.5 119.9 12.5 119.9
2001-11-09 00:00:00 12.6 118.8 12.7 118.7 12.6 119.0 12.8 118.8
2001-11-09 06:00:00 12.9 117.8 13.0 117.9 13.0 117.7 13.0 117.8
2001-11-09 12:00:00 13.1 116.9 13.2 117.0 13.1 116.9 13.2 116.9
2001-11-09 18:00:00 13.4 116.0 13.4 116.1 13.4 116.0 13.4 116.0
2001-11-10 00:00:00 13.4 115.3 13.4 115.3 13.4 115.3 13.5 115.3
2001-11-10 06:00:00 13.5 114.8 13.5 114.7 13.5 114.8 13.5 114.7
2001-11-10 12:00:00 13.5 114.0 13.5 114.1 13.6 114.1 13.6 114.0
2001-11-10 18:00:00 13.6 113.3 13.6 113.3 13.6 113.3 13.6 113.3
2001-11-11 00:00:00 13.6 112.4 13.5 112.5 13.6 112.5 13.6 112.5
2001-11-11 06:00:00 13.5 111.6 13.5 111.7 13.6 111.7 13.6 111.7
jtwc_wp tokyo cma hko
2001-11-11 12:00:00 13.5 110.5 13.5 110.5 13.6 110.6 13.6 110.6
2001-11-11 18:00:00 13.6 109.4 13.5 109.5 13.6 109.4 13.6 109.4
2001-11-12 00:00:00 13.6 108.3 13.5 108.3 13.5 108.0 13.6 108.3
2001-11-12 06:00:00 13.5 107.3 13.5 107.3 13.4 107.1 13.6 107.3
2001-11-12 12:00:00 13.3 106.4 13.5 106.3 13.4 106.2 13.6 106.3

top of pageTrack Data:Intensity

jtwc_wp tokyo cma hko
Date Wind Pres Wind Pres Wind Pres Wind Pres
2001-11-05 06:00:00 20. 1004.
2001-11-05 12:00:00 20. 1004.
2001-11-05 18:00:00 25. 1004.
2001-11-06 00:00:00 25. 1003. 1004. 29. 1004.
2001-11-06 06:00:00 25. 1002. 1002. 29. 1002.
2001-11-06 12:00:00 30. 1000. 1002. 29. 1002. 25. 1002.
2001-11-06 18:00:00 30. 1000. 35. 996. 29. 1000. 30. 1000.
2001-11-07 00:00:00 35. 997. 35. 996. 35. 995. 35. 998.
2001-11-07 06:00:00 40. 994. 35. 994. 39. 995. 40. 994.
2001-11-07 12:00:00 35. 997. 35. 996. 39. 995. 40. 994.
2001-11-07 18:00:00 40. 994. 35. 994. 39. 995. 40. 994.
2001-11-08 00:00:00 45. 991. 40. 992. 39. 995. 40. 994.
2001-11-08 06:00:00 45. 991. 45. 990. 49. 990. 45. 990.
2001-11-08 12:00:00 55. 984. 45. 990. 49. 990. 50. 985.
2001-11-08 18:00:00 55. 984. 55. 980. 54. 985. 50. 985.
2001-11-09 00:00:00 65. 976. 55. 980. 58. 980. 55. 980.
2001-11-09 06:00:00 70. 972. 60. 975. 58. 980. 60. 975.
2001-11-09 12:00:00 80. 963. 65. 970. 64. 975. 65. 970.
2001-11-09 18:00:00 90. 954. 70. 965. 68. 970. 70. 965.
2001-11-10 00:00:00 100. 944. 75. 955. 78. 960. 75. 960.
2001-11-10 06:00:00 110. 933. 80. 950. 87. 955. 80. 955.
2001-11-10 12:00:00 115. 927. 85. 945. 97. 945. 85. 950.
2001-11-10 18:00:00 115. 927. 85. 945. 97. 940. 85. 950.
2001-11-11 00:00:00 115. 927. 85. 940. 97. 940. 85. 950.
2001-11-11 06:00:00 110. 933. 85. 940. 97. 945. 80. 955.
jtwc_wp tokyo cma hko
2001-11-11 12:00:00 100. 944. 70. 955. 87. 955. 75. 960.
2001-11-11 18:00:00 95. 949. 50. 985. 68. 970. 60. 975.
2001-11-12 00:00:00 60. 980. 998. 49. 985. 50. 985.
2001-11-12 06:00:00 45. 991. 1000. 39. 990. 40. 994.
2001-11-12 12:00:00 25. 1002. 1004. 35. 995. 30. 1000.

top of page Links to source data

Source Source file Format
jtwc_wp bwp272001.txt ATCF
tokyo bst_all.txt:Line=51025:LINGLING:123 JMA text table
cma CH2001BST.txt:Storm=25:Lingling CMA text table
hko tc-besttrack-data-current.txt:Line=29025:LINGLING HKO Text table